Time;durP1;ratioP1;P1;durP2;ratioP2;P2;SDS_P1;SDS_P2;PMS_P1;PMS_P2;Temp;Humidity;BMP_temperature;BMP_pressure;BME280_temperature;BME280_humidity;BME280_pressure;Samples;Min_cycle;Max_cycle;Signal;HPM_P1;HPM_P2
2022/01/29 05:01:06;;;;;;;32.40;18.77;;;2.90;99.90;;;;;;5724102;23;20474;-77
2022/01/29 05:03:33;;;;;;;39.03;18.87;;;2.90;99.90;;;;;;4976634;28;20538;-77
2022/01/29 05:06:01;;;;;;;35.67;18.47;;;2.90;99.90;;;;;;4976447;28;20542;-77
2022/01/29 05:08:28;;;;;;;35.67;19.90;;;2.90;99.90;;;;;;4976642;28;20884;-77
2022/01/29 05:10:55;;;;;;;38.33;19.40;;;2.90;99.90;;;;;;4976301;28;20574;-77
2022/01/29 05:13:25;;;;;;;41.77;19.90;;;2.80;99.90;;;;;;4976538;28;20510;-77
2022/01/29 05:16:06;;;;;;;35.30;18.17;;;2.80;99.90;;;;;;4976440;28;20932;-77
2022/01/29 05:26:53;;;;;;;35.50;20.27;;;2.60;99.90;;;;;;4976125;28;20439;-77
2022/01/29 05:29:21;;;;;;;39.30;23.13;;;2.50;99.90;;;;;;4976094;28;20456;-77
2022/01/29 05:31:51;;;;;;;33.23;19.47;;;2.40;99.90;;;;;;4975940;28;20509;-77
2022/01/29 05:34:20;;;;;;;42.87;22.37;;;2.40;99.90;;;;;;4976126;28;20514;-77
2022/01/29 05:36:47;;;;;;;36.30;20.90;;;2.40;99.90;;;;;;4976030;28;20452;-77
2022/01/29 05:39:14;;;;;;;36.40;20.30;;;2.30;99.90;;;;;;4975885;28;20551;-77
2022/01/29 05:41:41;;;;;;;39.87;20.30;;;2.30;99.90;;;;;;4976425;28;20506;-77
2022/01/29 05:44:08;;;;;;;40.50;20.17;;;2.30;99.90;;;;;;4976873;28;20542;-77
2022/01/29 05:46:35;;;;;;;43.33;21.90;;;2.30;99.90;;;;;;4976741;28;20447;-77
2022/01/29 05:49:02;;;;;;;48.07;25.27;;;2.30;99.90;;;;;;4976971;28;20452;-77
2022/01/29 05:51:31;;;;;;;42.00;20.33;;;2.30;99.90;;;;;;4976507;28;20871;-77
2022/01/29 05:53:58;;;;;;;47.87;22.90;;;2.30;99.90;;;;;;4976931;28;20575;-77
2022/01/29 05:56:26;;;;;;;39.23;18.43;;;2.30;99.90;;;;;;4976457;28;20620;-77
2022/01/29 05:58:53;;;;;;;36.07;17.80;;;2.20;99.90;;;;;;4975639;28;20444;-77
2022/01/29 06:01:20;;;;;;;36.53;19.23;;;2.20;99.90;;;;;;4976026;28;20562;-77
2022/01/29 06:03:47;;;;;;;35.63;18.67;;;2.20;99.90;;;;;;4976096;28;20480;-77
2022/01/29 06:06:15;;;;;;;39.10;19.13;;;2.20;99.90;;;;;;4976262;28;20548;-77
2022/01/29 06:08:43;;;;;;;34.93;17.70;;;2.20;99.90;;;;;;4976206;28;20456;-77
2022/01/29 06:11:10;;;;;;;34.43;16.97;;;2.20;99.90;;;;;;4975665;28;20502;-77
2022/01/29 06:13:37;;;;;;;32.10;16.27;;;2.20;99.90;;;;;;4975619;28;20947;-77
2022/01/29 06:16:04;;;;;;;31.43;16.33;;;2.20;99.90;;;;;;4975920;28;20890;-77
2022/01/29 06:18:32;;;;;;;29.43;16.17;;;2.10;99.90;;;;;;4975611;28;20487;-77
2022/01/29 06:21:04;;;;;;;34.60;14.83;;;2.20;99.90;;;;;;4975309;28;20999;-77
2022/01/29 06:23:33;;;;;;;29.93;14.73;;;2.10;99.90;;;;;;4976144;28;20456;-77
2022/01/29 06:26:03;;;;;;;28.70;13.87;;;2.10;99.90;;;;;;4984017;28;20511;-77
2022/01/29 06:28:30;;;;;;;26.90;15.10;;;2.10;99.90;;;;;;4981803;28;20546;-77
2022/01/29 06:30:57;;;;;;;23.43;13.60;;;2.10;99.90;;;;;;4975418;28;20500;-77
2022/01/29 06:33:24;;;;;;;29.03;14.43;;;2.10;99.90;;;;;;4975256;28;20952;-77
2022/01/29 06:35:51;;;;;;;28.37;15.10;;;2.20;99.90;;;;;;4975332;28;20830;-77
2022/01/29 06:38:18;;;;;;;30.93;15.20;;;2.20;99.90;;;;;;4969247;28;20452;-77
2022/01/29 06:40:45;;;;;;;28.30;14.40;;;2.20;99.90;;;;;;4975088;28;20550;-76
2022/01/29 06:43:14;;;;;;;25.60;13.30;;;2.20;99.90;;;;;;4966337;28;20452;-74
2022/01/29 06:45:42;;;;;;;22.57;12.50;;;2.20;99.90;;;;;;4971739;28;20534;-75
2022/01/29 06:48:09;;;;;;;30.90;14.57;;;2.20;99.90;;;;;;4975124;28;20535;-75
2022/01/29 06:50:37;;;;;;;24.03;12.53;;;2.20;99.90;;;;;;4968997;28;20474;-75
2022/01/29 06:53:04;;;;;;;23.97;12.43;;;2.20;99.90;;;;;;4974727;28;20500;-75
2022/01/29 06:55:31;;;;;;;26.57;14.37;;;2.20;99.90;;;;;;4974776;28;20455;-75
2022/01/29 06:57:58;;;;;;;24.43;12.90;;;2.20;99.90;;;;;;4969864;28;20445;-73
2022/01/29 07:00:27;;;;;;;21.60;12.43;;;2.20;99.90;;;;;;4970013;28;20487;-74
2022/01/29 07:02:53;;;;;;;23.70;12.20;;;2.30;99.90;;;;;;4962830;28;20875;-74
2022/01/29 07:05:20;;;;;;;28.20;15.73;;;2.30;99.90;;;;;;4964301;28;20543;-74
2022/01/29 07:07:47;;;;;;;28.03;13.77;;;2.30;99.90;;;;;;4974287;28;20495;-74
2022/01/29 07:10:14;;;;;;;26.10;15.07;;;2.30;99.90;;;;;;4974122;28;21002;-74
2022/01/29 07:12:42;;;;;;;30.57;15.93;;;2.30;99.90;;;;;;4974183;28;20551;-74
2022/01/29 07:15:10;;;;;;;23.07;13.30;;;2.30;99.90;;;;;;4973227;28;20451;-74
2022/01/29 07:17:39;;;;;;;26.23;14.30;;;2.20;99.90;;;;;;4974338;28;20452;-74
2022/01/29 07:20:08;;;;;;;25.80;14.40;;;2.30;99.90;;;;;;4974131;28;20589;-74
2022/01/29 07:22:35;;;;;;;23.73;14.20;;;2.30;99.90;;;;;;4973034;28;20845;-74
2022/01/29 07:25:02;;;;;;;27.30;14.30;;;2.30;99.90;;;;;;4974135;28;20452;-74
2022/01/29 07:27:28;;;;;;;28.00;15.53;;;2.40;99.90;;;;;;4973826;28;20543;-75
2022/01/29 07:29:55;;;;;;;29.70;15.20;;;2.40;99.90;;;;;;4973774;28;20539;-76
2022/01/29 07:32:22;;;;;;;27.20;15.30;;;2.50;99.90;;;;;;4973629;28;20600;-75
2022/01/29 07:34:51;;;;;;;30.40;16.07;;;2.50;99.90;;;;;;4974142;28;20448;-76
2022/01/29 07:37:17;;;;;;;26.37;15.20;;;2.50;99.90;;;;;;4973819;28;20547;-75
2022/01/29 07:39:44;;;;;;;28.47;15.17;;;2.60;99.90;;;;;;4973737;28;20455;-75
2022/01/29 07:42:11;;;;;;;21.87;13.30;;;2.70;99.90;;;;;;4973520;28;20566;-76
2022/01/29 07:44:38;;;;;;;26.60;15.83;;;2.70;99.90;;;;;;4973591;28;21011;-76
2022/01/29 07:47:06;;;;;;;28.73;15.33;;;2.70;99.90;;;;;;4973679;28;20554;-76
2022/01/29 07:49:33;;;;;;;27.10;15.97;;;2.80;99.90;;;;;;4967800;28;20452;-75
2022/01/29 07:52:01;;;;;;;30.50;16.63;;;2.80;99.90;;;;;;4956832;28;20497;-74
2022/01/29 07:54:28;;;;;;;27.50;15.30;;;2.80;99.90;;;;;;4954173;28;20516;-75
2022/01/29 07:56:55;;;;;;;26.90;16.30;;;2.80;99.90;;;;;;4954528;28;20540;-75
2022/01/29 07:59:22;;;;;;;29.60;16.77;;;2.90;99.90;;;;;;4954171;28;20544;-75
2022/01/29 08:01:48;;;;;;;29.93;16.93;;;2.90;99.90;;;;;;4953904;28;20477;-75
2022/01/29 08:04:15;;;;;;;30.20;17.40;;;2.90;99.90;;;;;;4953934;29;21011;-75
2022/01/29 08:06:42;;;;;;;28.93;16.97;;;2.90;99.90;;;;;;4959192;28;20444;-75
2022/01/29 08:09:10;;;;;;;32.27;17.17;;;2.90;99.90;;;;;;4964016;28;20531;-75
2022/01/29 08:11:37;;;;;;;28.70;16.10;;;2.90;99.90;;;;;;4966179;28;20532;-74
2022/01/29 08:14:04;;;;;;;30.67;16.73;;;2.90;99.90;;;;;;4969904;28;20552;-75
2022/01/29 08:16:31;;;;;;;31.43;16.43;;;2.90;99.90;;;;;;4953944;28;20543;-73
2022/01/29 08:18:58;;;;;;;29.00;16.50;;;2.90;99.90;;;;;;4953846;28;20456;-73
2022/01/29 08:21:25;;;;;;;30.30;15.60;;;2.80;99.90;;;;;;4953793;28;20504;-73
2022/01/29 08:23:52;;;;;;;36.03;18.13;;;2.90;99.90;;;;;;4953758;28;21028;-73
2022/01/29 08:26:20;;;;;;;33.73;17.07;;;2.90;99.90;;;;;;4953574;28;20979;-74
2022/01/29 08:28:47;;;;;;;34.17;18.37;;;2.80;99.90;;;;;;4954910;28;20459;-72
2022/01/29 08:31:14;;;;;;;32.17;17.47;;;2.80;99.90;;;;;;4964844;28;20502;-73
2022/01/29 08:33:41;;;;;;;33.90;18.10;;;2.80;99.90;;;;;;4973000;28;20552;-73
2022/01/29 08:36:08;;;;;;;35.60;18.23;;;2.80;99.90;;;;;;4972857;28;20492;-75
2022/01/29 08:38:35;;;;;;;29.83;17.97;;;2.90;99.90;;;;;;4972930;28;20824;-73
2022/01/29 08:41:03;;;;;;;24.17;14.93;;;3.00;99.90;;;;;;4972778;28;21007;-73
2022/01/29 08:43:32;;;;;;;24.93;15.37;;;3.00;99.90;;;;;;4973066;28;20480;-73
2022/01/29 08:46:00;;;;;;;30.80;17.00;;;3.00;99.90;;;;;;4972871;28;20459;-72
2022/01/29 08:48:27;;;;;;;24.87;16.20;;;2.90;99.90;;;;;;4972829;28;20978;-73
2022/01/29 08:50:54;;;;;;;27.73;15.97;;;2.90;99.90;;;;;;4972621;28;20584;-73
2022/01/29 08:53:21;;;;;;;26.80;15.70;;;2.90;99.90;;;;;;4972243;28;20582;-73
2022/01/29 08:55:49;;;;;;;37.17;18.17;;;2.90;99.90;;;;;;4973117;28;20456;-73
2022/01/29 08:58:16;;;;;;;28.03;15.57;;;2.90;99.90;;;;;;4972980;28;20462;-73
2022/01/29 09:00:46;;;;;;;29.57;15.87;;;3.00;99.90;;;;;;4972522;28;20567;-73
2022/01/29 09:03:14;;;;;;;29.43;17.67;;;3.00;99.90;;;;;;4972827;28;20452;-73
2022/01/29 09:05:42;;;;;;;27.07;15.83;;;3.00;99.90;;;;;;4972125;28;20592;-73
2022/01/29 09:08:09;;;;;;;26.50;14.67;;;3.00;99.90;;;;;;4958774;28;20488;-73
2022/01/29 09:10:37;;;;;;;26.00;16.03;;;3.10;99.90;;;;;;4953522;28;20480;-73
2022/01/29 09:13:04;;;;;;;24.80;14.47;;;3.10;99.90;;;;;;4953414;28;20507;-73
2022/01/29 09:15:31;;;;;;;24.47;14.90;;;3.10;99.90;;;;;;4953634;29;20820;-74
2022/01/29 09:17:59;;;;;;;24.67;14.50;;;3.10;99.90;;;;;;4953454;29;20543;-74
2022/01/29 09:20:26;;;;;;;21.20;12.97;;;3.20;99.90;;;;;;4953344;29;20540;-74
2022/01/29 09:22:53;;;;;;;23.53;13.97;;;3.20;99.90;;;;;;4953689;29;20463;-73
2022/01/29 09:25:20;;;;;;;22.93;13.80;;;3.30;99.90;;;;;;4953399;28;20445;-74
2022/01/29 09:27:47;;;;;;;19.53;12.80;;;3.30;99.90;;;;;;4953745;29;21139;-74
2022/01/29 09:30:14;;;;;;;20.70;12.57;;;3.40;99.90;;;;;;4954508;29;20539;-74
2022/01/29 09:32:41;;;;;;;22.13;11.80;;;3.50;99.90;;;;;;4954946;29;20608;-74
2022/01/29 09:35:10;;;;;;;21.10;12.67;;;3.50;99.90;;;;;;4954035;29;20452;-73
2022/01/29 09:37:37;;;;;;;21.23;12.27;;;3.60;99.90;;;;;;4955930;28;20991;-74
2022/01/29 09:40:07;;;;;;;18.50;12.23;;;3.60;99.90;;;;;;4957462;28;20485;-73
2022/01/29 09:42:35;;;;;;;20.73;11.87;;;3.60;99.90;;;;;;4957815;29;20548;-75
2022/01/29 09:45:03;;;;;;;15.67;11.30;;;3.60;99.90;;;;;;4957762;29;20495;-73
2022/01/29 09:47:30;;;;;;;14.30;9.97;;;3.60;99.90;;;;;;4956897;29;20510;-76
2022/01/29 09:49:58;;;;;;;17.50;11.30;;;3.60;99.90;;;;;;4957831;28;20885;-75
2022/01/29 09:52:26;;;;;;;16.03;9.27;;;3.60;99.90;;;;;;4957504;29;20675;-74
2022/01/29 09:54:53;;;;;;;15.97;10.40;;;3.60;99.90;;;;;;4965017;28;20452;-75
2022/01/29 09:57:20;;;;;;;12.57;9.03;;;3.60;99.90;;;;;;4963525;28;20455;-75
2022/01/29 09:59:50;;;;;;;14.50;9.03;;;3.70;99.90;;;;;;4958335;28;20463;-73
2022/01/29 10:02:18;;;;;;;14.40;8.77;;;3.70;99.90;;;;;;4956115;28;20485;-74
2022/01/29 10:04:53;;;;;;;13.57;9.53;;;3.70;99.90;;;;;;4956268;28;21036;-74
2022/01/29 10:07:22;;;;;;;11.30;7.67;;;3.80;99.90;;;;;;4956338;28;20552;-74
2022/01/29 10:09:50;;;;;;;18.00;9.67;;;3.80;99.90;;;;;;4956048;28;20457;-75
2022/01/29 10:12:19;;;;;;;15.70;9.00;;;3.90;99.90;;;;;;4955915;28;20595;-74
2022/01/29 10:14:57;;;;;;;12.57;8.77;;;3.90;99.90;;;;;;4956111;28;20870;-75
2022/01/29 10:17:45;;;;;;;16.47;9.50;;;3.90;99.90;;;;;;4956333;28;20543;-74
2022/01/29 10:20:23;;;;;;;14.43;9.50;;;3.90;99.90;;;;;;4955881;28;20516;-74
2022/01/29 10:22:52;;;;;;;17.10;9.87;;;4.00;99.90;;;;;;4956125;28;20535;-74
2022/01/29 10:25:23;;;;;;;9.00;7.30;;;4.00;99.90;;;;;;4956175;28;20524;-75
2022/01/29 10:28:07;;;;;;;11.00;7.67;;;4.00;99.90;;;;;;4956069;28;20515;-75
2022/01/29 10:30:36;;;;;;;10.67;7.83;;;4.00;99.90;;;;;;4955512;28;21005;-74
2022/01/29 10:33:19;;;;;;;10.87;8.07;;;4.10;99.90;;;;;;4955488;28;20499;-74
2022/01/29 10:35:48;;;;;;;12.33;7.70;;;4.10;99.90;;;;;;4955979;28;20535;-75
2022/01/29 10:38:18;;;;;;;11.77;7.73;;;4.20;99.90;;;;;;4956168;28;20455;-75
2022/01/29 10:40:47;;;;;;;10.43;7.67;;;4.20;99.90;;;;;;4955583;28;20547;-75
2022/01/29 10:43:14;;;;;;;12.70;7.50;;;4.20;99.90;;;;;;4958214;28;20444;-74
2022/01/29 10:45:41;;;;;;;12.23;8.20;;;4.30;99.90;;;;;;4974073;28;20483;-75
2022/01/29 10:48:08;;;;;;;16.30;8.47;;;4.40;99.90;;;;;;4974978;28;20455;-74
2022/01/29 10:50:35;;;;;;;12.27;7.93;;;4.40;99.90;;;;;;4974740;28;20478;-74
2022/01/29 10:53:24;;;;;;;13.40;7.40;;;4.40;99.90;;;;;;4974917;28;20578;-74
2022/01/29 10:56:03;;;;;;;13.10;7.80;;;4.50;99.90;;;;;;4974659;28;20456;-69
2022/01/29 10:58:31;;;;;;;17.93;9.43;;;4.50;99.90;;;;;;4974441;28;20490;-68
2022/01/29 11:01:19;;;;;;;14.30;8.80;;;4.50;99.90;;;;;;4973844;28;20449;-69
2022/01/29 11:03:46;;;;;;;11.00;8.20;;;4.80;99.90;;;;;;4974556;28;20587;-75
2022/01/29 11:06:16;;;;;;;9.50;6.20;;;4.90;99.90;;;;;;4974395;28;20463;-75
2022/01/29 11:08:45;;;;;;;13.57;6.47;;;4.90;99.90;;;;;;4974774;28;20475;-75
2022/01/29 11:11:14;;;;;;;8.37;5.00;;;5.00;99.90;;;;;;4974501;28;20483;-75
2022/01/29 11:13:43;;;;;;;7.77;5.27;;;5.00;99.90;;;;;;4974618;28;20500;-75
2022/01/29 11:16:12;;;;;;;7.10;5.20;;;5.10;99.90;;;;;;4988674;23;21195;-77
2022/01/29 11:18:39;;;;;;;7.60;5.10;;;5.20;99.90;;;;;;4954918;29;20634;-76
2022/01/29 11:21:07;;;;;;;6.63;4.50;;;5.20;99.90;;;;;;4955030;29;20452;-77
2022/01/29 11:23:34;;;;;;;7.80;4.70;;;5.30;99.90;;;;;;4954965;29;20449;-76
2022/01/29 11:26:02;;;;;;;5.07;4.13;;;5.30;99.90;;;;;;4954921;29;20469;-77
2022/01/29 11:28:32;;;;;;;7.30;4.47;;;5.40;99.90;;;;;;4954752;29;20553;-76
2022/01/29 11:31:23;;;;;;;5.97;4.23;;;5.40;99.90;;;;;;4954609;29;20906;-76
2022/01/29 11:34:21;;;;;;;6.73;4.33;;;5.40;99.90;;;;;;4954795;29;20492;-76
2022/01/29 11:37:05;;;;;;;5.63;4.80;;;5.40;99.90;;;;;;4954610;29;20472;-75
2022/01/29 11:39:34;;;;;;;6.00;4.43;;;5.50;99.90;;;;;;4954181;28;20488;-75
2022/01/29 11:42:32;;;;;;;5.93;4.43;;;5.50;99.90;;;;;;4954609;29;20961;-76
2022/01/29 11:45:51;;;;;;;5.77;5.13;;;5.50;99.90;;;;;;4938228;29;20464;-67
2022/01/29 11:48:51;;;;;;;5.80;4.03;;;5.60;99.90;;;;;;4875718;29;20589;-75
2022/01/29 11:51:39;;;;;;;6.60;4.37;;;5.60;99.90;;;;;;4934791;29;20457;-76
2022/01/29 11:54:07;;;;;;;8.33;4.23;;;5.70;99.90;;;;;;4935002;29;20580;-77
2022/01/29 11:56:36;;;;;;;5.50;4.30;;;5.70;99.90;;;;;;4934921;29;21212;-77
2022/01/29 11:59:28;;;;;;;3.97;3.50;;;5.70;99.90;;;;;;4934865;29;20457;-75
2022/01/29 12:01:58;;;;;;;5.03;4.33;;;5.80;99.90;;;;;;4934938;29;20830;-76
2022/01/29 12:04:46;;;;;;;5.60;3.17;;;5.90;99.90;;;;;;4935085;29;20496;-76
2022/01/29 12:07:17;;;;;;;4.17;2.77;;;5.90;99.90;;;;;;4934790;29;20503;-76
2022/01/29 12:09:45;;;;;;;6.77;2.90;;;5.90;99.90;;;;;;4935209;29;20548;-76
2022/01/29 12:12:18;;;;;;;4.50;3.33;;;5.90;99.90;;;;;;4935146;29;21076;-77
2022/01/29 12:14:46;;;;;;;7.00;3.90;;;6.00;99.90;;;;;;4934999;29;20951;-77
2022/01/29 12:17:34;;;;;;;7.90;4.73;;;6.00;99.90;;;;;;4934553;29;20482;-76
2022/01/29 12:20:02;;;;;;;6.53;4.17;;;6.00;99.90;;;;;;4933853;29;20460;-76
2022/01/29 12:22:33;;;;;;;5.47;4.50;;;6.00;99.90;;;;;;4933854;29;20462;-76
2022/01/29 12:25:02;;;;;;;5.40;3.90;;;6.00;99.90;;;;;;4942300;29;20452;-77
2022/01/29 12:27:46;;;;;;;7.40;4.90;;;6.00;99.90;;;;;;4939477;29;20549;-77
2022/01/29 12:30:15;;;;;;;8.40;5.33;;;6.00;99.90;;;;;;4936788;29;20871;-77
2022/01/29 12:32:55;;;;;;;8.10;5.10;;;6.10;99.90;;;;;;4938126;29;20584;-77
2022/01/29 12:35:22;;;;;;;11.10;5.23;;;6.10;99.90;;;;;;4936831;29;20457;-77
2022/01/29 12:37:55;;;;;;;7.33;4.43;;;6.10;99.90;;;;;;4936297;29;20513;-77
2022/01/29 12:40:22;;;;;;;6.63;4.43;;;6.20;99.90;;;;;;4936178;29;20476;-77
2022/01/29 12:42:57;;;;;;;7.67;4.50;;;6.20;99.90;;;;;;4936194;29;20584;-76
2022/01/29 12:45:24;;;;;;;6.60;4.10;;;6.20;99.90;;;;;;4935438;29;20457;-77
2022/01/29 12:48:07;;;;;;;6.87;3.80;;;6.20;99.90;;;;;;4936614;29;20993;-77
2022/01/29 12:50:34;;;;;;;7.33;4.70;;;6.30;99.90;;;;;;4936176;29;20454;-77
2022/01/29 12:53:08;;;;;;;4.87;3.60;;;6.30;99.90;;;;;;4936234;29;20499;-76
2022/01/29 12:55:36;;;;;;;5.07;4.23;;;6.30;99.90;;;;;;4936398;29;20489;-77
2022/01/29 12:58:03;;;;;;;5.10;3.80;;;6.40;99.90;;;;;;4935768;29;20997;-77
2022/01/29 13:00:31;;;;;;;7.50;3.40;;;6.30;99.90;;;;;;4935988;29;20481;-78
2022/01/29 13:03:06;;;;;;;6.83;4.00;;;6.40;99.90;;;;;;4935722;29;20450;-77
2022/01/29 13:05:40;;;;;;;4.70;4.20;;;6.40;99.90;;;;;;4935985;29;20970;-77
2022/01/29 13:08:07;;;;;;;5.63;3.97;;;6.40;99.90;;;;;;4936095;29;20835;-77
2022/01/29 13:10:35;;;;;;;3.90;2.80;;;6.40;99.90;;;;;;4935449;29;20549;-76
2022/01/29 13:13:02;;;;;;;5.07;2.87;;;6.40;99.90;;;;;;4937743;29;20497;-77
2022/01/29 13:15:38;;;;;;;2.93;2.43;;;6.40;99.90;;;;;;4939200;29;20545;-77
2022/01/29 13:18:09;;;;;;;2.10;2.00;;;6.40;99.90;;;;;;4944209;29;20509;-77
2022/01/29 13:20:37;;;;;;;2.23;2.03;;;6.40;99.90;;;;;;4939421;29;20563;-77
2022/01/29 13:23:04;;;;;;;2.20;2.00;;;6.40;99.90;;;;;;4939501;29;20875;-75
2022/01/29 13:25:34;;;;;;;2.50;2.27;;;6.40;99.90;;;;;;4938696;29;20493;-77
2022/01/29 13:28:11;;;;;;;3.33;2.10;;;6.30;99.90;;;;;;4939397;29;20486;-77
2022/01/29 13:30:38;;;;;;;3.60;2.93;;;6.30;99.90;;;;;;4939413;29;20525;-77
2022/01/29 13:33:18;;;;;;;2.70;2.10;;;6.30;99.90;;;;;;4940261;29;20584;-76
2022/01/29 13:35:47;;;;;;;2.33;2.13;;;6.30;99.90;;;;;;4939939;29;20549;-77
2022/01/29 13:38:24;;;;;;;4.93;2.30;;;6.40;99.90;;;;;;4940458;29;20517;-76
2022/01/29 13:40:54;;;;;;;2.47;2.27;;;6.40;99.90;;;;;;4958147;29;20456;-77
2022/01/29 13:43:34;;;;;;;2.40;2.20;;;6.40;99.90;;;;;;4944221;29;20478;-77
2022/01/29 13:46:03;;;;;;;2.80;2.20;;;6.40;99.90;;;;;;4948312;29;20457;-77
2022/01/29 13:48:44;;;;;;;2.90;2.30;;;6.40;99.90;;;;;;4944898;29;20477;-76
2022/01/29 13:51:13;;;;;;;3.90;2.60;;;6.40;99.90;;;;;;4947270;29;20487;-77
2022/01/29 13:53:43;;;;;;;3.77;3.17;;;6.40;99.90;;;;;;4946503;29;21001;-77
2022/01/29 13:56:12;;;;;;;4.23;3.20;;;6.30;99.90;;;;;;4958222;29;20456;-78
2022/01/29 13:58:52;;;;;;;4.60;3.03;;;6.30;99.90;;;;;;4960658;28;20983;-77
2022/01/29 14:01:37;;;;;;;4.03;2.70;;;6.40;99.90;;;;;;4941748;29;20455;-78
2022/01/29 14:04:07;;;;;;;4.67;2.90;;;6.40;99.90;;;;;;4939232;29;20540;-78
2022/01/29 14:06:38;;;;;;;2.90;2.60;;;6.40;99.90;;;;;;4938857;29;20503;-77
2022/01/29 14:09:23;;;;;;;3.80;2.77;;;6.40;99.90;;;;;;4939640;29;20457;-78
2022/01/29 14:12:18;;;;;;;5.10;3.13;;;6.50;99.90;;;;;;4939774;29;20593;-77
2022/01/29 14:14:47;;;;;;;5.20;3.20;;;6.50;99.90;;;;;;4939540;29;20497;-78
2022/01/29 14:17:16;;;;;;;3.43;2.93;;;6.50;99.90;;;;;;4938842;29;20495;-76
2022/01/29 14:19:47;;;;;;;3.93;2.90;;;6.50;99.90;;;;;;4939358;29;20590;-77
2022/01/29 14:22:14;;;;;;;3.97;3.40;;;6.50;99.90;;;;;;4938881;29;20446;-76
2022/01/29 14:24:44;;;;;;;6.57;3.20;;;6.50;99.90;;;;;;4937613;29;20901;-78
2022/01/29 14:27:12;;;;;;;4.77;3.50;;;6.50;99.90;;;;;;4940120;29;20477;-78
2022/01/29 14:29:42;;;;;;;2.97;2.67;;;6.60;99.90;;;;;;4939610;29;20490;-78
2022/01/29 14:32:10;;;;;;;3.40;2.77;;;6.60;99.90;;;;;;4940458;29;20493;-77
2022/01/29 14:34:37;;;;;;;5.00;3.40;;;6.50;99.90;;;;;;4939918;29;20588;-78
2022/01/29 14:37:06;;;;;;;3.30;2.90;;;6.50;99.90;;;;;;4939643;29;20504;-77
2022/01/29 14:39:33;;;;;;;5.67;3.23;;;6.50;99.90;;;;;;4939047;29;20892;-77
2022/01/29 14:42:03;;;;;;;5.03;3.37;;;6.50;99.90;;;;;;4939141;29;20532;-77
2022/01/29 14:44:31;;;;;;;5.27;3.43;;;6.50;99.90;;;;;;4939456;29;20477;-77
2022/01/29 14:46:58;;;;;;;3.73;3.13;;;6.40;99.90;;;;;;4938777;29;20506;-77
2022/01/29 14:49:26;;;;;;;3.13;2.60;;;6.40;99.90;;;;;;4938286;29;20886;-77
2022/01/29 14:51:54;;;;;;;5.40;3.80;;;6.50;99.90;;;;;;4938866;29;20466;-77
2022/01/29 14:54:22;;;;;;;2.93;2.60;;;6.50;99.90;;;;;;4938673;29;20499;-77
2022/01/29 14:56:50;;;;;;;4.00;2.93;;;6.50;99.90;;;;;;4947937;29;20893;-77
2022/01/29 14:59:17;;;;;;;3.93;2.93;;;6.40;99.90;;;;;;4942391;28;20441;-77
2022/01/29 15:01:44;;;;;;;4.10;2.90;;;6.50;99.90;;;;;;4946062;29;20496;-77
2022/01/29 15:04:11;;;;;;;3.80;3.10;;;6.50;99.90;;;;;;4950828;28;20453;-77
2022/01/29 15:06:38;;;;;;;4.07;2.73;;;6.50;99.90;;;;;;4944109;29;20564;-77
2022/01/29 15:09:06;;;;;;;4.30;3.67;;;6.40;99.90;;;;;;4949710;29;20544;-77
2022/01/29 15:11:35;;;;;;;3.40;2.40;;;6.40;99.90;;;;;;4945247;29;20482;-76
2022/01/29 15:14:03;;;;;;;8.70;2.97;;;6.50;99.90;;;;;;4935786;29;20581;-75
2022/01/29 15:16:30;;;;;;;3.93;3.33;;;6.50;99.90;;;;;;4935775;29;20482;-76
2022/01/29 15:19:00;;;;;;;4.67;3.53;;;6.50;99.90;;;;;;4935682;29;20540;-76
2022/01/29 15:21:27;;;;;;;4.83;3.37;;;6.40;99.90;;;;;;4935877;29;20454;-76
2022/01/29 15:23:54;;;;;;;7.33;3.67;;;6.40;99.90;;;;;;4935565;29;21008;-76
2022/01/29 15:26:21;;;;;;;3.07;2.63;;;6.40;99.90;;;;;;4935463;29;20857;-76
2022/01/29 15:28:50;;;;;;;3.67;2.70;;;6.40;99.90;;;;;;4935278;29;20972;-71
2022/01/29 15:31:16;;;;;;;4.50;2.47;;;6.40;99.90;;;;;;4935896;29;20537;-75
2022/01/29 15:33:44;;;;;;;6.83;2.57;;;6.40;99.90;;;;;;4935571;29;20498;-76
2022/01/29 15:36:11;;;;;;;3.27;2.67;;;6.40;99.90;;;;;;4934828;29;20953;-76
2022/01/29 15:38:39;;;;;;;2.77;2.47;;;6.40;99.90;;;;;;4935264;29;20553;-76
2022/01/29 15:41:07;;;;;;;4.10;2.60;;;6.40;99.90;;;;;;4935436;29;20541;-76
2022/01/29 15:43:35;;;;;;;4.00;2.80;;;6.50;99.90;;;;;;4935301;29;20552;-76
2022/01/29 15:46:04;;;;;;;3.20;2.60;;;6.50;99.90;;;;;;4935478;29;20545;-76
2022/01/29 15:48:35;;;;;;;4.47;3.30;;;6.50;99.90;;;;;;4935563;29;20529;-75
2022/01/29 15:51:02;;;;;;;4.10;2.80;;;6.50;99.90;;;;;;4942522;29;20548;-76
2022/01/29 15:53:29;;;;;;;4.90;3.70;;;6.50;99.90;;;;;;4937544;29;20456;-74
2022/01/29 15:55:56;;;;;;;5.60;4.33;;;6.50;99.90;;;;;;4934949;29;20460;-75
2022/01/29 15:58:23;;;;;;;7.57;5.17;;;6.50;99.90;;;;;;4940261;29;20452;-76
2022/01/29 16:00:54;;;;;;;8.23;4.90;;;6.50;99.90;;;;;;4936574;29;20549;-78
2022/01/29 16:03:22;;;;;;;5.60;3.57;;;6.60;99.90;;;;;;4937661;29;21135;-78
2022/01/29 16:05:52;;;;;;;4.50;3.70;;;6.60;99.90;;;;;;4950331;29;20450;-78
2022/01/29 16:08:21;;;;;;;6.20;4.10;;;6.60;99.90;;;;;;4956121;29;20479;-76
2022/01/29 16:10:49;;;;;;;4.10;3.67;;;6.60;99.90;;;;;;4956111;29;20453;-77
2022/01/29 16:13:17;;;;;;;5.17;3.77;;;6.60;99.90;;;;;;4956416;29;20453;-78
2022/01/29 16:15:44;;;;;;;3.70;3.10;;;6.60;99.90;;;;;;4957897;29;20890;-78
2022/01/29 16:18:11;;;;;;;4.33;3.40;;;6.50;99.90;;;;;;4954651;28;20571;-76
2022/01/29 16:20:40;;;;;;;3.40;3.10;;;6.60;99.90;;;;;;4953707;28;20488;-75
2022/01/29 16:23:07;;;;;;;5.10;4.03;;;6.50;99.90;;;;;;4953978;28;20560;-75
2022/01/29 16:25:37;;;;;;;5.73;4.23;;;6.60;99.90;;;;;;4954338;28;20449;-76
2022/01/29 16:28:06;;;;;;;5.90;3.73;;;6.60;99.90;;;;;;4954874;29;20481;-77
2022/01/29 16:30:33;;;;;;;5.67;3.10;;;6.60;99.90;;;;;;4952518;29;20460;-75
2022/01/29 16:33:00;;;;;;;3.50;3.20;;;6.60;99.90;;;;;;4934477;29;20488;-75
2022/01/29 16:35:27;;;;;;;4.20;3.00;;;6.60;99.90;;;;;;4934495;29;20580;-75
2022/01/29 16:37:56;;;;;;;3.00;2.63;;;6.70;99.90;;;;;;4936013;29;20517;-77
2022/01/29 16:40:23;;;;;;;4.03;2.80;;;6.60;99.90;;;;;;4935179;29;20481;-77
2022/01/29 16:42:50;;;;;;;3.90;2.80;;;6.60;99.90;;;;;;4934825;29;20517;-75
2022/01/29 16:45:17;;;;;;;3.40;2.70;;;6.60;99.90;;;;;;4934529;29;20541;-75
2022/01/29 16:47:44;;;;;;;7.10;3.17;;;6.60;99.90;;;;;;4938015;29;20477;-73
2022/01/29 16:50:11;;;;;;;3.40;2.87;;;6.60;99.90;;;;;;4939344;29;20489;-78
2022/01/29 16:52:38;;;;;;;2.87;2.53;;;6.70;99.90;;;;;;4940541;29;20461;-78
2022/01/29 16:55:07;;;;;;;5.67;3.10;;;6.70;99.90;;;;;;4940454;29;20605;-76
2022/01/29 16:57:34;;;;;;;3.37;2.77;;;6.70;99.90;;;;;;4939594;29;20509;-78
2022/01/29 17:00:00;;;;;;;3.70;3.03;;;6.70;99.90;;;;;;4939610;29;20516;-78
2022/01/29 17:02:27;;;;;;;3.83;3.03;;;6.70;99.90;;;;;;4939274;29;20489;-78
2022/01/29 17:04:55;;;;;;;4.47;3.40;;;6.70;99.90;;;;;;4940017;29;20457;-78
2022/01/29 17:07:22;;;;;;;4.63;3.60;;;6.70;99.90;;;;;;4939773;29;20908;-78
2022/01/29 17:09:49;;;;;;;3.83;3.23;;;6.60;99.90;;;;;;4940085;29;20496;-78
2022/01/29 17:12:18;;;;;;;3.33;3.03;;;6.70;99.90;;;;;;4940046;29;20468;-78
2022/01/29 17:14:46;;;;;;;5.07;3.13;;;6.60;99.90;;;;;;4939881;29;20505;-78
2022/01/29 17:17:13;;;;;;;6.00;3.20;;;6.60;99.90;;;;;;4938810;29;20490;-75
2022/01/29 17:19:40;;;;;;;4.20;2.87;;;6.60;99.90;;;;;;4937764;29;20453;-74
2022/01/29 17:22:07;;;;;;;3.40;2.93;;;6.60;99.90;;;;;;4940497;29;20449;-76
2022/01/29 17:24:33;;;;;;;6.10;3.23;;;6.50;99.90;;;;;;4948199;29;20438;-75
2022/01/29 17:27:00;;;;;;;3.23;2.83;;;6.50;99.90;;;;;;4944236;29;20556;-76
2022/01/29 17:29:29;;;;;;;5.77;3.20;;;6.50;99.90;;;;;;4945875;28;20444;-76
2022/01/29 17:31:55;;;;;;;4.33;3.03;;;6.50;99.90;;;;;;4945637;29;20955;-77
2022/01/29 17:34:22;;;;;;;5.33;3.00;;;6.60;99.90;;;;;;4943525;29;20933;-74
2022/01/29 17:36:49;;;;;;;3.73;2.93;;;6.50;99.90;;;;;;4947044;29;20501;-76
2022/01/29 17:39:16;;;;;;;4.07;3.10;;;6.60;99.90;;;;;;4946188;29;20544;-73
2022/01/29 17:41:44;;;;;;;5.10;3.60;;;6.60;99.90;;;;;;4948604;29;20484;-74
2022/01/29 17:44:10;;;;;;;3.60;3.00;;;6.50;99.90;;;;;;4956072;28;20485;-74
2022/01/29 17:46:39;;;;;;;4.27;2.90;;;6.60;99.90;;;;;;4950503;29;20497;-73
2022/01/29 17:49:07;;;;;;;7.37;4.63;;;6.60;99.90;;;;;;4955787;29;20552;-74
2022/01/29 17:51:34;;;;;;;4.07;3.30;;;6.60;99.90;;;;;;4954707;29;20460;-74
2022/01/29 17:54:01;;;;;;;6.70;3.60;;;6.60;99.90;;;;;;4942157;29;20485;-74
2022/01/29 17:56:28;;;;;;;5.57;3.80;;;6.60;99.90;;;;;;4937363;29;20473;-74
2022/01/29 17:58:55;;;;;;;3.97;3.23;;;6.60;99.90;;;;;;4936395;29;20545;-76
2022/01/29 18:01:22;;;;;;;4.30;3.50;;;6.60;99.90;;;;;;4937339;29;20462;-75
2022/01/29 18:03:50;;;;;;;4.90;4.23;;;6.60;99.90;;;;;;4937174;29;20976;-75
2022/01/29 18:06:17;;;;;;;5.07;3.40;;;6.70;99.90;;;;;;4937005;29;20484;-74
2022/01/29 18:08:44;;;;;;;4.60;3.80;;;6.70;99.90;;;;;;4936425;29;20469;-74